sensor_id;sensor_type;location;lat;lon;timestamp;P1;durP1;ratioP1;P2;durP2;ratioP2
6436;SDS011;3251;53.550;9.918;2023-05-10T05:22:30;5.00;;;4.57;;
6436;SDS011;3251;53.550;9.918;2023-05-10T05:24:56;5.20;;;4.80;;
6436;SDS011;3251;53.550;9.918;2023-05-10T05:27:27;12.70;;;4.63;;
6436;SDS011;3251;53.550;9.918;2023-05-10T05:29:53;8.13;;;4.27;;
6436;SDS011;3251;53.550;9.918;2023-05-10T05:32:19;4.70;;;4.30;;
6436;SDS011;3251;53.550;9.918;2023-05-10T05:34:46;7.20;;;4.43;;
6436;SDS011;3251;53.550;9.918;2023-05-10T05:37:12;4.63;;;4.10;;
6436;SDS011;3251;53.550;9.918;2023-05-10T05:39:39;4.87;;;4.47;;
6436;SDS011;3251;53.550;9.918;2023-05-10T05:42:05;5.27;;;4.77;;
6436;SDS011;3251;53.550;9.918;2023-05-10T05:44:31;6.57;;;4.60;;
6436;SDS011;3251;53.550;9.918;2023-05-10T05:46:57;5.20;;;4.30;;
6436;SDS011;3251;53.550;9.918;2023-05-10T05:49:23;10.97;;;5.90;;
6436;SDS011;3251;53.550;9.918;2023-05-10T05:51:50;5.23;;;4.40;;
6436;SDS011;3251;53.550;9.918;2023-05-10T05:54:16;5.63;;;4.13;;
6436;SDS011;3251;53.550;9.918;2023-05-10T05:56:44;5.43;;;5.03;;
6436;SDS011;3251;53.550;9.918;2023-05-10T05:59:10;6.70;;;4.40;;
6436;SDS011;3251;53.550;9.918;2023-05-10T06:01:36;4.23;;;3.97;;
6436;SDS011;3251;53.550;9.918;2023-05-10T06:04:02;7.50;;;5.53;;
6436;SDS011;3251;53.550;9.918;2023-05-10T06:06:29;20.97;;;4.70;;
6436;SDS011;3251;53.550;9.918;2023-05-10T06:08:55;5.20;;;4.43;;
6436;SDS011;3251;53.550;9.918;2023-05-10T06:11:21;8.03;;;4.83;;
6436;SDS011;3251;53.550;9.918;2023-05-10T06:13:47;5.90;;;4.70;;
6436;SDS011;3251;53.550;9.918;2023-05-10T06:16:14;6.33;;;4.30;;
6436;SDS011;3251;53.550;9.918;2023-05-10T06:18:40;8.43;;;4.43;;
6436;SDS011;3251;53.550;9.918;2023-05-10T06:21:06;8.37;;;5.23;;
6436;SDS011;3251;53.550;9.918;2023-05-10T06:23:32;9.50;;;4.30;;
6436;SDS011;3251;53.550;9.918;2023-05-10T06:25:58;4.47;;;4.07;;
6436;SDS011;3251;53.550;9.918;2023-05-10T06:28:24;10.87;;;5.00;;
6436;SDS011;3251;53.550;9.918;2023-05-10T06:30:51;5.20;;;4.70;;
6436;SDS011;3251;53.550;9.918;2023-05-10T06:33:17;5.27;;;4.77;;
6436;SDS011;3251;53.550;9.918;2023-05-10T06:35:43;6.37;;;5.10;;
6436;SDS011;3251;53.550;9.918;2023-05-10T06:38:09;9.00;;;5.23;;
6436;SDS011;3251;53.550;9.918;2023-05-10T06:40:35;8.27;;;4.40;;
6436;SDS011;3251;53.550;9.918;2023-05-10T06:43:01;14.00;;;4.23;;
6436;SDS011;3251;53.550;9.918;2023-05-10T06:45:27;9.07;;;4.90;;
6436;SDS011;3251;53.550;9.918;2023-05-10T06:47:54;6.73;;;4.93;;
6436;SDS011;3251;53.550;9.918;2023-05-10T06:50:20;7.73;;;4.97;;
6436;SDS011;3251;53.550;9.918;2023-05-10T06:52:46;8.47;;;5.10;;
6436;SDS011;3251;53.550;9.918;2023-05-10T06:55:12;7.37;;;5.73;;
6436;SDS011;3251;53.550;9.918;2023-05-10T06:57:38;8.47;;;4.53;;
6436;SDS011;3251;53.550;9.918;2023-05-10T07:00:05;5.77;;;5.17;;
6436;SDS011;3251;53.550;9.918;2023-05-10T07:02:31;7.33;;;4.80;;
6436;SDS011;3251;53.550;9.918;2023-05-10T07:04:57;4.50;;;4.10;;
6436;SDS011;3251;53.550;9.918;2023-05-10T07:07:24;6.00;;;4.30;;
6436;SDS011;3251;53.550;9.918;2023-05-10T07:09:50;5.83;;;4.00;;
6436;SDS011;3251;53.550;9.918;2023-05-10T07:12:16;6.77;;;4.50;;
6436;SDS011;3251;53.550;9.918;2023-05-10T07:14:42;11.70;;;5.30;;
6436;SDS011;3251;53.550;9.918;2023-05-10T07:17:08;4.30;;;3.87;;
6436;SDS011;3251;53.550;9.918;2023-05-10T07:19:35;5.20;;;4.07;;
6436;SDS011;3251;53.550;9.918;2023-05-10T07:22:01;5.67;;;4.43;;
6436;SDS011;3251;53.550;9.918;2023-05-10T07:24:27;8.40;;;4.03;;
6436;SDS011;3251;53.550;9.918;2023-05-10T07:26:53;4.33;;;3.43;;
6436;SDS011;3251;53.550;9.918;2023-05-10T07:29:19;12.53;;;3.70;;
6436;SDS011;3251;53.550;9.918;2023-05-10T07:31:46;4.03;;;3.73;;
6436;SDS011;3251;53.550;9.918;2023-05-10T07:34:12;19.33;;;4.77;;
6436;SDS011;3251;53.550;9.918;2023-05-10T07:36:38;7.10;;;4.30;;
6436;SDS011;3251;53.550;9.918;2023-05-10T07:39:04;10.47;;;4.10;;
6436;SDS011;3251;53.550;9.918;2023-05-10T07:41:30;3.83;;;3.50;;
6436;SDS011;3251;53.550;9.918;2023-05-10T07:43:57;5.40;;;4.90;;
6436;SDS011;3251;53.550;9.918;2023-05-10T07:46:23;3.57;;;3.10;;
6436;SDS011;3251;53.550;9.918;2023-05-10T07:48:49;10.23;;;4.50;;
6436;SDS011;3251;53.550;9.918;2023-05-10T07:51:15;4.57;;;4.03;;
6436;SDS011;3251;53.550;9.918;2023-05-10T07:53:42;3.90;;;3.33;;
6436;SDS011;3251;53.550;9.918;2023-05-10T07:56:24;25.73;;;3.73;;
6436;SDS011;3251;53.550;9.918;2023-05-10T07:58:52;4.53;;;4.00;;
6436;SDS011;3251;53.550;9.918;2023-05-10T08:01:18;5.47;;;4.27;;
6436;SDS011;3251;53.550;9.918;2023-05-10T08:03:44;11.37;;;4.33;;
6436;SDS011;3251;53.550;9.918;2023-05-10T08:06:11;5.17;;;4.23;;
6436;SDS011;3251;53.550;9.918;2023-05-10T08:08:37;6.60;;;4.30;;
6436;SDS011;3251;53.550;9.918;2023-05-10T08:11:03;7.13;;;3.80;;
6436;SDS011;3251;53.550;9.918;2023-05-10T08:13:29;6.50;;;4.67;;
6436;SDS011;3251;53.550;9.918;2023-05-10T08:15:56;6.40;;;3.97;;
6436;SDS011;3251;53.550;9.918;2023-05-10T08:18:22;5.63;;;3.93;;
6436;SDS011;3251;53.550;9.918;2023-05-10T08:20:48;12.00;;;4.00;;
6436;SDS011;3251;53.550;9.918;2023-05-10T08:23:14;4.50;;;4.10;;
6436;SDS011;3251;53.550;9.918;2023-05-10T08:25:41;7.20;;;3.67;;
6436;SDS011;3251;53.550;9.918;2023-05-10T08:28:07;13.90;;;4.77;;
6436;SDS011;3251;53.550;9.918;2023-05-10T08:30:33;4.10;;;3.70;;
6436;SDS011;3251;53.550;9.918;2023-05-10T08:32:59;7.00;;;3.30;;
6436;SDS011;3251;53.550;9.918;2023-05-10T08:35:26;6.90;;;4.20;;
6436;SDS011;3251;53.550;9.918;2023-05-10T08:37:52;7.00;;;4.40;;
6436;SDS011;3251;53.550;9.918;2023-05-10T08:40:18;4.60;;;4.20;;
6436;SDS011;3251;53.550;9.918;2023-05-10T08:42:55;10.43;;;5.00;;
6436;SDS011;3251;53.550;9.918;2023-05-10T08:45:23;9.73;;;5.07;;
6436;SDS011;3251;53.550;9.918;2023-05-10T08:47:50;18.80;;;5.40;;
6436;SDS011;3251;53.550;9.918;2023-05-10T08:50:18;10.83;;;4.10;;
6436;SDS011;3251;53.550;9.918;2023-05-10T08:52:46;4.87;;;4.47;;
6436;SDS011;3251;53.550;9.918;2023-05-10T08:55:14;4.87;;;4.47;;
6436;SDS011;3251;53.550;9.918;2023-05-10T08:57:41;5.10;;;4.80;;
6436;SDS011;3251;53.550;9.918;2023-05-10T09:00:07;9.20;;;4.50;;
6436;SDS011;3251;53.550;9.918;2023-05-10T09:02:34;6.70;;;4.63;;
6436;SDS011;3251;53.550;9.918;2023-05-10T09:05:01;5.07;;;4.67;;
6436;SDS011;3251;53.550;9.918;2023-05-10T09:07:31;6.20;;;4.17;;
6436;SDS011;3251;53.550;9.918;2023-05-10T09:09:57;13.27;;;4.77;;
6436;SDS011;3251;53.550;9.918;2023-05-10T09:12:23;5.93;;;5.13;;
6436;SDS011;3251;53.550;9.918;2023-05-10T09:14:50;17.33;;;5.23;;
6436;SDS011;3251;53.550;9.918;2023-05-10T09:17:18;12.70;;;5.27;;
6436;SDS011;3251;53.550;9.918;2023-05-10T09:19:44;7.77;;;5.30;;
6436;SDS011;3251;53.550;9.918;2023-05-10T09:22:11;8.33;;;5.00;;
6436;SDS011;3251;53.550;9.918;2023-05-10T09:24:37;8.30;;;4.07;;
6436;SDS011;3251;53.550;9.918;2023-05-10T09:27:07;8.57;;;5.47;;
6436;SDS011;3251;53.550;9.918;2023-05-10T09:29:41;9.97;;;5.50;;
6436;SDS011;3251;53.550;9.918;2023-05-10T09:32:07;10.07;;;5.13;;
6436;SDS011;3251;53.550;9.918;2023-05-10T09:34:33;7.07;;;5.30;;
6436;SDS011;3251;53.550;9.918;2023-05-10T09:37:02;4.90;;;4.50;;
6436;SDS011;3251;53.550;9.918;2023-05-10T09:39:32;5.10;;;4.60;;
6436;SDS011;3251;53.550;9.918;2023-05-10T09:42:05;18.53;;;6.47;;
6436;SDS011;3251;53.550;9.918;2023-05-10T09:44:32;11.23;;;5.63;;
6436;SDS011;3251;53.550;9.918;2023-05-10T09:46:59;11.63;;;5.50;;
6436;SDS011;3251;53.550;9.918;2023-05-10T09:49:25;9.27;;;6.20;;
6436;SDS011;3251;53.550;9.918;2023-05-10T09:52:24;6.73;;;5.90;;
6436;SDS011;3251;53.550;9.918;2023-05-10T09:54:53;6.83;;;5.00;;
6436;SDS011;3251;53.550;9.918;2023-05-10T09:57:22;13.40;;;6.00;;
6436;SDS011;3251;53.550;9.918;2023-05-10T09:59:49;9.60;;;5.77;;
6436;SDS011;3251;53.550;9.918;2023-05-10T10:02:16;7.80;;;6.00;;
6436;SDS011;3251;53.550;9.918;2023-05-10T10:04:42;10.03;;;6.27;;
6436;SDS011;3251;53.550;9.918;2023-05-10T10:07:09;10.63;;;6.43;;
6436;SDS011;3251;53.550;9.918;2023-05-10T10:09:35;7.07;;;6.20;;
6436;SDS011;3251;53.550;9.918;2023-05-10T10:12:01;10.47;;;6.13;;
6436;SDS011;3251;53.550;9.918;2023-05-10T10:14:28;13.30;;;6.37;;
6436;SDS011;3251;53.550;9.918;2023-05-10T10:16:55;9.60;;;7.33;;
6436;SDS011;3251;53.550;9.918;2023-05-10T10:19:21;8.40;;;7.20;;
6436;SDS011;3251;53.550;9.918;2023-05-10T10:21:48;7.53;;;6.80;;
6436;SDS011;3251;53.550;9.918;2023-05-10T10:24:15;11.37;;;7.07;;
6436;SDS011;3251;53.550;9.918;2023-05-10T10:26:41;11.43;;;7.33;;
6436;SDS011;3251;53.550;9.918;2023-05-10T10:29:24;8.37;;;6.87;;
6436;SDS011;3251;53.550;9.918;2023-05-10T10:32:03;11.30;;;7.97;;
6436;SDS011;3251;53.550;9.918;2023-05-10T10:34:34;20.03;;;8.63;;
6436;SDS011;3251;53.550;9.918;2023-05-10T10:37:04;11.53;;;8.17;;
6436;SDS011;3251;53.550;9.918;2023-05-10T10:39:31;11.93;;;8.37;;
6436;SDS011;3251;53.550;9.918;2023-05-10T10:41:58;9.00;;;7.20;;
6436;SDS011;3251;53.550;9.918;2023-05-10T10:44:26;9.57;;;7.77;;
6436;SDS011;3251;53.550;9.918;2023-05-10T10:49:34;11.70;;;7.60;;
6436;SDS011;3251;53.550;9.918;2023-05-10T10:54:41;9.43;;;7.80;;
6436;SDS011;3251;53.550;9.918;2023-05-10T10:57:13;13.93;;;8.20;;
6436;SDS011;3251;53.550;9.918;2023-05-10T10:59:42;12.30;;;8.73;;
6436;SDS011;3251;53.550;9.918;2023-05-10T11:02:09;14.83;;;8.00;;
6436;SDS011;3251;53.550;9.918;2023-05-10T11:04:42;10.17;;;9.13;;
6436;SDS011;3251;53.550;9.918;2023-05-10T11:07:17;12.33;;;8.93;;
6436;SDS011;3251;53.550;9.918;2023-05-10T11:09:44;19.40;;;8.40;;
6436;SDS011;3251;53.550;9.918;2023-05-10T11:12:10;9.73;;;8.73;;
6436;SDS011;3251;53.550;9.918;2023-05-10T11:14:36;8.50;;;7.53;;
6436;SDS011;3251;53.550;9.918;2023-05-10T11:17:02;12.97;;;8.77;;
6436;SDS011;3251;53.550;9.918;2023-05-10T11:22:48;10.80;;;8.07;;
6436;SDS011;3251;53.550;9.918;2023-05-10T11:25:15;8.40;;;7.47;;
6436;SDS011;3251;53.550;9.918;2023-05-10T11:27:42;12.43;;;9.60;;
6436;SDS011;3251;53.550;9.918;2023-05-10T11:30:11;11.27;;;8.47;;
6436;SDS011;3251;53.550;9.918;2023-05-10T11:32:38;9.97;;;9.07;;
6436;SDS011;3251;53.550;9.918;2023-05-10T11:35:07;12.17;;;9.23;;
6436;SDS011;3251;53.550;9.918;2023-05-10T11:37:34;10.10;;;8.57;;
6436;SDS011;3251;53.550;9.918;2023-05-10T11:40:00;11.93;;;9.90;;
6436;SDS011;3251;53.550;9.918;2023-05-10T11:42:27;10.80;;;8.37;;
6436;SDS011;3251;53.550;9.918;2023-05-10T11:44:53;11.53;;;9.23;;
6436;SDS011;3251;53.550;9.918;2023-05-10T11:47:20;12.13;;;9.63;;
6436;SDS011;3251;53.550;9.918;2023-05-10T11:49:48;15.43;;;8.63;;
6436;SDS011;3251;53.550;9.918;2023-05-10T11:52:15;19.73;;;9.50;;
6436;SDS011;3251;53.550;9.918;2023-05-10T11:54:51;14.60;;;10.00;;
6436;SDS011;3251;53.550;9.918;2023-05-10T11:57:20;13.90;;;9.90;;
6436;SDS011;3251;53.550;9.918;2023-05-10T11:59:47;11.67;;;8.90;;
6436;SDS011;3251;53.550;9.918;2023-05-10T12:02:13;10.97;;;9.73;;
6436;SDS011;3251;53.550;9.918;2023-05-10T12:04:40;10.63;;;8.83;;
6436;SDS011;3251;53.550;9.918;2023-05-10T12:07:06;9.07;;;8.17;;
6436;SDS011;3251;53.550;9.918;2023-05-10T12:09:33;14.00;;;8.87;;
6436;SDS011;3251;53.550;9.918;2023-05-10T12:11:59;9.80;;;8.80;;
6436;SDS011;3251;53.550;9.918;2023-05-10T12:14:26;13.33;;;7.10;;
6436;SDS011;3251;53.550;9.918;2023-05-10T12:16:53;14.50;;;11.10;;
6436;SDS011;3251;53.550;9.918;2023-05-10T12:19:19;17.93;;;10.10;;
6436;SDS011;3251;53.550;9.918;2023-05-10T12:21:46;20.30;;;10.07;;
6436;SDS011;3251;53.550;9.918;2023-05-10T12:24:13;13.43;;;10.07;;
6436;SDS011;3251;53.550;9.918;2023-05-10T12:26:42;13.33;;;8.10;;
6436;SDS011;3251;53.550;9.918;2023-05-10T12:29:12;11.83;;;9.80;;
6436;SDS011;3251;53.550;9.918;2023-05-10T12:31:52;10.30;;;8.57;;
6436;SDS011;3251;53.550;9.918;2023-05-10T12:36:54;11.00;;;8.70;;
6436;SDS011;3251;53.550;9.918;2023-05-10T12:39:20;11.90;;;8.17;;
6436;SDS011;3251;53.550;9.918;2023-05-10T12:41:46;11.10;;;8.30;;
6436;SDS011;3251;53.550;9.918;2023-05-10T12:44:12;10.43;;;8.07;;
6436;SDS011;3251;53.550;9.918;2023-05-10T12:46:39;7.33;;;6.60;;
6436;SDS011;3251;53.550;9.918;2023-05-10T12:49:05;8.70;;;7.87;;
6436;SDS011;3251;53.550;9.918;2023-05-10T12:51:31;6.83;;;6.23;;
6436;SDS011;3251;53.550;9.918;2023-05-10T12:53:57;7.53;;;6.93;;
6436;SDS011;3251;53.550;9.918;2023-05-10T12:56:23;8.50;;;7.70;;
6436;SDS011;3251;53.550;9.918;2023-05-10T12:58:49;7.73;;;6.83;;
6436;SDS011;3251;53.550;9.918;2023-05-10T13:01:16;6.87;;;6.37;;
6436;SDS011;3251;53.550;9.918;2023-05-10T13:03:42;7.03;;;6.43;;
6436;SDS011;3251;53.550;9.918;2023-05-10T13:06:08;8.20;;;7.60;;
6436;SDS011;3251;53.550;9.918;2023-05-10T13:08:35;7.60;;;6.97;;
6436;SDS011;3251;53.550;9.918;2023-05-10T13:11:01;9.60;;;8.27;;
6436;SDS011;3251;53.550;9.918;2023-05-10T13:13:28;8.97;;;8.17;;
6436;SDS011;3251;53.550;9.918;2023-05-10T13:15:54;11.90;;;7.67;;
6436;SDS011;3251;53.550;9.918;2023-05-10T13:18:20;8.17;;;7.37;;
6436;SDS011;3251;53.550;9.918;2023-05-10T13:20:46;11.40;;;8.17;;
6436;SDS011;3251;53.550;9.918;2023-05-10T13:23:14;9.80;;;8.57;;
6436;SDS011;3251;53.550;9.918;2023-05-10T13:25:40;19.23;;;7.87;;
6436;SDS011;3251;53.550;9.918;2023-05-10T13:28:07;10.33;;;7.23;;
6436;SDS011;3251;53.550;9.918;2023-05-10T13:30:40;10.87;;;8.13;;
6436;SDS011;3251;53.550;9.918;2023-05-10T13:33:06;8.43;;;7.63;;
6436;SDS011;3251;53.550;9.918;2023-05-10T13:35:32;7.83;;;7.10;;
6436;SDS011;3251;53.550;9.918;2023-05-10T13:37:58;9.83;;;8.67;;
6436;SDS011;3251;53.550;9.918;2023-05-10T13:40:25;9.17;;;8.27;;
6436;SDS011;3251;53.550;9.918;2023-05-10T13:42:51;8.97;;;8.07;;
6436;SDS011;3251;53.550;9.918;2023-05-10T13:45:18;10.60;;;7.40;;
6436;SDS011;3251;53.550;9.918;2023-05-10T13:47:44;8.87;;;7.90;;
6436;SDS011;3251;53.550;9.918;2023-05-10T13:50:10;9.27;;;7.83;;
6436;SDS011;3251;53.550;9.918;2023-05-10T13:52:36;9.87;;;7.60;;
6436;SDS011;3251;53.550;9.918;2023-05-10T13:55:02;10.20;;;9.20;;
6436;SDS011;3251;53.550;9.918;2023-05-10T13:57:28;15.53;;;10.17;;
6436;SDS011;3251;53.550;9.918;2023-05-10T13:59:55;11.07;;;9.53;;
6436;SDS011;3251;53.550;9.918;2023-05-10T14:02:22;10.87;;;9.70;;
6436;SDS011;3251;53.550;9.918;2023-05-10T14:04:49;10.67;;;7.97;;
6436;SDS011;3251;53.550;9.918;2023-05-10T14:07:15;11.93;;;9.83;;
6436;SDS011;3251;53.550;9.918;2023-05-10T14:09:42;15.10;;;11.03;;
6436;SDS011;3251;53.550;9.918;2023-05-10T14:12:08;9.17;;;8.30;;
6436;SDS011;3251;53.550;9.918;2023-05-10T14:14:35;8.37;;;7.57;;
6436;SDS011;3251;53.550;9.918;2023-05-10T14:17:01;10.07;;;9.00;;
6436;SDS011;3251;53.550;9.918;2023-05-10T14:19:27;8.67;;;7.50;;
6436;SDS011;3251;53.550;9.918;2023-05-10T14:21:55;12.10;;;8.30;;
6436;SDS011;3251;53.550;9.918;2023-05-10T14:24:21;9.80;;;7.97;;
6436;SDS011;3251;53.550;9.918;2023-05-10T14:26:47;11.17;;;7.90;;
6436;SDS011;3251;53.550;9.918;2023-05-10T14:29:14;10.90;;;9.30;;
6436;SDS011;3251;53.550;9.918;2023-05-10T14:31:40;12.60;;;8.00;;
6436;SDS011;3251;53.550;9.918;2023-05-10T14:34:06;8.07;;;7.30;;
6436;SDS011;3251;53.550;9.918;2023-05-10T14:36:32;9.60;;;8.10;;
6436;SDS011;3251;53.550;9.918;2023-05-10T14:38:58;10.37;;;8.10;;
6436;SDS011;3251;53.550;9.918;2023-05-10T14:41:24;8.60;;;7.80;;
6436;SDS011;3251;53.550;9.918;2023-05-10T14:43:50;9.13;;;7.57;;
6436;SDS011;3251;53.550;9.918;2023-05-10T14:46:17;9.10;;;8.00;;
6436;SDS011;3251;53.550;9.918;2023-05-10T14:48:43;9.33;;;8.63;;
6436;SDS011;3251;53.550;9.918;2023-05-10T14:51:09;8.10;;;7.40;;
6436;SDS011;3251;53.550;9.918;2023-05-10T14:53:36;7.40;;;6.77;;
6436;SDS011;3251;53.550;9.918;2023-05-10T14:56:02;10.00;;;7.47;;
6436;SDS011;3251;53.550;9.918;2023-05-10T14:58:28;9.10;;;8.07;;
6436;SDS011;3251;53.550;9.918;2023-05-10T15:00:55;8.90;;;8.10;;
6436;SDS011;3251;53.550;9.918;2023-05-10T15:03:22;7.93;;;7.23;;
6436;SDS011;3251;53.550;9.918;2023-05-10T15:05:48;13.50;;;7.27;;
6436;SDS011;3251;53.550;9.918;2023-05-10T15:08:14;8.93;;;8.07;;
6436;SDS011;3251;53.550;9.918;2023-05-10T15:10:40;8.03;;;7.33;;
6436;SDS011;3251;53.550;9.918;2023-05-10T15:13:06;8.20;;;6.97;;
6436;SDS011;3251;53.550;9.918;2023-05-10T15:15:32;9.13;;;8.30;;
6436;SDS011;3251;53.550;9.918;2023-05-10T15:17:58;8.83;;;8.03;;
6436;SDS011;3251;53.550;9.918;2023-05-10T15:20:25;7.63;;;7.03;;
6436;SDS011;3251;53.550;9.918;2023-05-10T15:22:51;9.20;;;8.10;;
6436;SDS011;3251;53.550;9.918;2023-05-10T15:25:17;16.83;;;7.77;;
6436;SDS011;3251;53.550;9.918;2023-05-10T15:27:43;7.83;;;6.23;;
6436;SDS011;3251;53.550;9.918;2023-05-10T15:30:10;16.67;;;7.00;;
6436;SDS011;3251;53.550;9.918;2023-05-10T15:32:38;7.30;;;6.73;;
6436;SDS011;3251;53.550;9.918;2023-05-10T15:35:05;7.00;;;6.30;;
6436;SDS011;3251;53.550;9.918;2023-05-10T15:37:31;8.47;;;7.73;;
6436;SDS011;3251;53.550;9.918;2023-05-10T15:39:58;10.10;;;6.83;;
6436;SDS011;3251;53.550;9.918;2023-05-10T15:42:28;6.47;;;6.03;;
6436;SDS011;3251;53.550;9.918;2023-05-10T15:44:55;8.57;;;7.70;;
6436;SDS011;3251;53.550;9.918;2023-05-10T15:47:21;14.20;;;7.37;;
6436;SDS011;3251;53.550;9.918;2023-05-10T15:49:51;12.37;;;9.27;;
6436;SDS011;3251;53.550;9.918;2023-05-10T15:52:17;13.13;;;8.93;;
6436;SDS011;3251;53.550;9.918;2023-05-10T15:54:43;9.10;;;8.00;;
6436;SDS011;3251;53.550;9.918;2023-05-10T15:57:09;11.63;;;9.33;;
6436;SDS011;3251;53.550;9.918;2023-05-10T15:59:35;13.07;;;9.70;;
6436;SDS011;3251;53.550;9.918;2023-05-10T16:02:01;8.60;;;7.77;;
6436;SDS011;3251;53.550;9.918;2023-05-10T16:04:28;16.17;;;7.87;;
6436;SDS011;3251;53.550;9.918;2023-05-10T16:06:55;7.57;;;6.87;;
6436;SDS011;3251;53.550;9.918;2023-05-10T16:09:21;7.70;;;6.60;;
6436;SDS011;3251;53.550;9.918;2023-05-10T16:11:47;6.57;;;5.90;;
6436;SDS011;3251;53.550;9.918;2023-05-10T16:14:13;8.57;;;6.63;;
6436;SDS011;3251;53.550;9.918;2023-05-10T16:16:40;6.10;;;5.60;;
6436;SDS011;3251;53.550;9.918;2023-05-10T16:19:07;10.43;;;6.70;;
6436;SDS011;3251;53.550;9.918;2023-05-10T16:21:33;6.63;;;6.13;;
6436;SDS011;3251;53.550;9.918;2023-05-10T16:23:59;7.30;;;6.60;;
6436;SDS011;3251;53.550;9.918;2023-05-10T16:26:25;8.03;;;6.80;;
6436;SDS011;3251;53.550;9.918;2023-05-10T16:28:51;11.43;;;6.73;;
6436;SDS011;3251;53.550;9.918;2023-05-10T16:31:18;7.03;;;6.60;;
6436;SDS011;3251;53.550;9.918;2023-05-10T16:33:44;7.90;;;6.70;;
6436;SDS011;3251;53.550;9.918;2023-05-10T16:36:10;8.90;;;5.97;;
6436;SDS011;3251;53.550;9.918;2023-05-10T16:38:36;8.70;;;7.70;;
6436;SDS011;3251;53.550;9.918;2023-05-10T16:41:03;8.07;;;5.80;;
6436;SDS011;3251;53.550;9.918;2023-05-10T16:43:29;7.13;;;6.43;;
6436;SDS011;3251;53.550;9.918;2023-05-10T16:45:56;8.13;;;7.43;;
6436;SDS011;3251;53.550;9.918;2023-05-10T16:48:22;8.43;;;6.83;;
6436;SDS011;3251;53.550;9.918;2023-05-10T16:50:48;8.00;;;6.40;;
6436;SDS011;3251;53.550;9.918;2023-05-10T16:53:14;13.70;;;8.50;;
6436;SDS011;3251;53.550;9.918;2023-05-10T16:55:40;9.07;;;7.93;;
6436;SDS011;3251;53.550;9.918;2023-05-10T16:58:07;8.07;;;7.47;;
6436;SDS011;3251;53.550;9.918;2023-05-10T17:00:33;12.23;;;7.77;;
6436;SDS011;3251;53.550;9.918;2023-05-10T17:02:59;6.90;;;6.40;;
6436;SDS011;3251;53.550;9.918;2023-05-10T17:05:25;7.90;;;6.53;;
6436;SDS011;3251;53.550;9.918;2023-05-10T17:07:51;7.10;;;6.50;;
6436;SDS011;3251;53.550;9.918;2023-05-10T17:10:18;7.53;;;6.77;;
6436;SDS011;3251;53.550;9.918;2023-05-10T17:12:44;7.33;;;6.60;;
6436;SDS011;3251;53.550;9.918;2023-05-10T17:15:10;8.50;;;6.47;;
6436;SDS011;3251;53.550;9.918;2023-05-10T17:17:36;5.70;;;5.20;;
6436;SDS011;3251;53.550;9.918;2023-05-10T17:20:02;5.90;;;5.47;;
6436;SDS011;3251;53.550;9.918;2023-05-10T17:22:29;5.57;;;5.00;;
6436;SDS011;3251;53.550;9.918;2023-05-10T17:24:55;7.00;;;6.30;;
6436;SDS011;3251;53.550;9.918;2023-05-10T17:27:22;4.67;;;4.33;;
6436;SDS011;3251;53.550;9.918;2023-05-10T17:29:48;8.90;;;6.53;;
6436;SDS011;3251;53.550;9.918;2023-05-10T17:32:14;15.90;;;6.00;;
6436;SDS011;3251;53.550;9.918;2023-05-10T17:34:40;7.70;;;6.20;;
6436;SDS011;3251;53.550;9.918;2023-05-10T17:37:08;6.63;;;6.13;;
6436;SDS011;3251;53.550;9.918;2023-05-10T17:39:34;6.87;;;5.80;;
6436;SDS011;3251;53.550;9.918;2023-05-10T17:42:01;5.90;;;5.40;;
6436;SDS011;3251;53.550;9.918;2023-05-10T17:44:28;3.87;;;3.57;;
6436;SDS011;3251;53.550;9.918;2023-05-10T17:46:54;6.80;;;6.20;;
6436;SDS011;3251;53.550;9.918;2023-05-10T17:49:20;5.63;;;5.23;;
6436;SDS011;3251;53.550;9.918;2023-05-10T17:51:46;8.77;;;7.23;;
6436;SDS011;3251;53.550;9.918;2023-05-10T17:54:12;6.10;;;5.50;;
6436;SDS011;3251;53.550;9.918;2023-05-10T17:56:39;24.97;;;5.53;;
6436;SDS011;3251;53.550;9.918;2023-05-10T17:59:05;8.30;;;6.90;;
6436;SDS011;3251;53.550;9.918;2023-05-10T18:01:31;6.60;;;5.60;;
6436;SDS011;3251;53.550;9.918;2023-05-10T18:03:57;5.43;;;5.03;;
6436;SDS011;3251;53.550;9.918;2023-05-10T18:06:23;7.03;;;5.00;;
6436;SDS011;3251;53.550;9.918;2023-05-10T18:08:49;5.37;;;4.87;;
6436;SDS011;3251;53.550;9.918;2023-05-10T18:11:16;5.80;;;5.30;;
6436;SDS011;3251;53.550;9.918;2023-05-10T18:13:42;5.70;;;5.13;;
6436;SDS011;3251;53.550;9.918;2023-05-10T18:16:08;5.70;;;5.20;;
6436;SDS011;3251;53.550;9.918;2023-05-10T18:18:36;4.63;;;4.33;;
6436;SDS011;3251;53.550;9.918;2023-05-10T18:21:03;5.80;;;5.27;;
6436;SDS011;3251;53.550;9.918;2023-05-10T18:23:29;5.30;;;4.80;;
6436;SDS011;3251;53.550;9.918;2023-05-10T18:25:56;5.47;;;5.07;;
6436;SDS011;3251;53.550;9.918;2023-05-10T18:28:22;5.90;;;5.40;;
6436;SDS011;3251;53.550;9.918;2023-05-10T18:30:51;8.10;;;5.33;;
6436;SDS011;3251;53.550;9.918;2023-05-10T18:33:17;4.70;;;4.30;;
6436;SDS011;3251;53.550;9.918;2023-05-10T18:35:43;7.40;;;5.33;;
6436;SDS011;3251;53.550;9.918;2023-05-10T18:38:10;4.10;;;3.80;;
6436;SDS011;3251;53.550;9.918;2023-05-10T18:40:37;4.67;;;4.23;;
6436;SDS011;3251;53.550;9.918;2023-05-10T18:43:04;5.40;;;4.90;;
6436;SDS011;3251;53.550;9.918;2023-05-10T18:45:30;6.23;;;5.73;;
6436;SDS011;3251;53.550;9.918;2023-05-10T18:47:56;6.73;;;6.13;;
6436;SDS011;3251;53.550;9.918;2023-05-10T18:50:22;6.03;;;5.43;;
6436;SDS011;3251;53.550;9.918;2023-05-10T18:52:48;7.00;;;6.23;;
6436;SDS011;3251;53.550;9.918;2023-05-10T18:55:14;5.60;;;5.10;;
6436;SDS011;3251;53.550;9.918;2023-05-10T18:57:40;8.70;;;5.50;;
6436;SDS011;3251;53.550;9.918;2023-05-10T19:00:10;5.73;;;5.00;;
6436;SDS011;3251;53.550;9.918;2023-05-10T19:02:37;10.93;;;4.90;;
6436;SDS011;3251;53.550;9.918;2023-05-10T19:05:03;16.73;;;5.20;;
6436;SDS011;3251;53.550;9.918;2023-05-10T19:07:30;7.43;;;4.43;;
6436;SDS011;3251;53.550;9.918;2023-05-10T19:09:56;5.37;;;4.83;;
6436;SDS011;3251;53.550;9.918;2023-05-10T19:12:22;5.00;;;4.33;;
6436;SDS011;3251;53.550;9.918;2023-05-10T19:14:48;7.30;;;3.60;;
6436;SDS011;3251;53.550;9.918;2023-05-10T19:17:14;4.43;;;4.03;;
6436;SDS011;3251;53.550;9.918;2023-05-10T19:19:41;4.27;;;3.93;;
6436;SDS011;3251;53.550;9.918;2023-05-10T19:22:10;4.43;;;3.80;;
6436;SDS011;3251;53.550;9.918;2023-05-10T19:24:36;3.50;;;3.30;;
6436;SDS011;3251;53.550;9.918;2023-05-10T19:27:02;3.63;;;3.33;;
6436;SDS011;3251;53.550;9.918;2023-05-10T19:29:28;2.53;;;2.33;;
6436;SDS011;3251;53.550;9.918;2023-05-10T19:31:55;4.17;;;2.70;;
6436;SDS011;3251;53.550;9.918;2023-05-10T19:34:21;4.30;;;3.93;;
6436;SDS011;3251;53.550;9.918;2023-05-10T19:36:47;3.67;;;3.47;;
6436;SDS011;3251;53.550;9.918;2023-05-10T19:39:13;4.03;;;3.73;;
6436;SDS011;3251;53.550;9.918;2023-05-10T19:41:39;4.17;;;3.97;;
6436;SDS011;3251;53.550;9.918;2023-05-10T19:44:06;3.60;;;3.40;;
6436;SDS011;3251;53.550;9.918;2023-05-10T19:46:32;3.20;;;3.00;;
6436;SDS011;3251;53.550;9.918;2023-05-10T19:48:58;4.47;;;3.83;;
6436;SDS011;3251;53.550;9.918;2023-05-10T19:51:24;3.57;;;3.40;;
6436;SDS011;3251;53.550;9.918;2023-05-10T19:53:50;3.50;;;3.40;;
6436;SDS011;3251;53.550;9.918;2023-05-10T19:56:16;3.77;;;3.57;;
6436;SDS011;3251;53.550;9.918;2023-05-10T19:58:43;3.70;;;3.07;;
6436;SDS011;3251;53.550;9.918;2023-05-10T20:01:09;4.47;;;4.17;;
6436;SDS011;3251;53.550;9.918;2023-05-10T20:03:35;3.73;;;3.50;;
6436;SDS011;3251;53.550;9.918;2023-05-10T20:06:01;3.87;;;3.67;;
6436;SDS011;3251;53.550;9.918;2023-05-10T20:08:28;4.30;;;4.00;;
6436;SDS011;3251;53.550;9.918;2023-05-10T20:10:55;5.27;;;4.77;;
6436;SDS011;3251;53.550;9.918;2023-05-10T20:13:26;5.30;;;5.00;;
6436;SDS011;3251;53.550;9.918;2023-05-10T20:15:56;4.50;;;4.20;;
6436;SDS011;3251;53.550;9.918;2023-05-10T20:18:22;4.50;;;4.30;;
6436;SDS011;3251;53.550;9.918;2023-05-10T20:20:52;5.60;;;5.20;;
6436;SDS011;3251;53.550;9.918;2023-05-10T20:23:19;6.50;;;6.10;;
6436;SDS011;3251;53.550;9.918;2023-05-10T20:25:45;5.97;;;5.17;;
6436;SDS011;3251;53.550;9.918;2023-05-10T20:28:13;5.90;;;5.50;;
6436;SDS011;3251;53.550;9.918;2023-05-10T20:30:40;13.70;;;6.97;;
6436;SDS011;3251;53.550;9.918;2023-05-10T20:33:06;6.83;;;6.10;;
6436;SDS011;3251;53.550;9.918;2023-05-10T20:35:33;7.00;;;6.50;;
6436;SDS011;3251;53.550;9.918;2023-05-10T20:37:59;7.50;;;6.80;;
6436;SDS011;3251;53.550;9.918;2023-05-10T20:40:26;5.80;;;5.43;;